Main page
METAR-TAF:

METAR-TAF

Airports :

Curaçao International Airport

Curaçao, Netherlands Antilles

latitude: 12-12N, longitude: 068-58W, elevation: 9 m

Current weather observation

The report was made 56 minutes ago, at 00:00 UTC
Wind 11 kt from the East
Temperature 26°C
Humidity 70%
Pressure 1015 hPa
Visibility 10 km or more
no clouds below 1500 m and no cumulonimbus

METAR: TNCC 160000Z 10011KT CAVOK 26/20 Q1015 NOSIG

Time: 20:56 (00:56 UTC)

Forecast

The report was made 3 hours and 26 minutes ago, at 21:30 UTC
Forecast valid from 16 at 00 UTC to 16 at 24 UTC
Wind 11 kt from the East
Visibility 10 km or more
Few clouds at a height of 1800 ft
Temporary
from 16 at 06 UTC to 16 at 12 UTC
Broken clouds at a height of 1400 ft

TAF: TNCC 152130Z 1600/1624 10011KT 9999 FEW018 TEMPO 1606/1612 BKN014

Weather observations and forecasts of more than 4000 airports (METAR and TAF reports).

The available stations are represented by yellow and red dots on the map.

Hover mouse over dot to see the name of the station.

Then click to see weather observations and forecasts.

To change the map : click on the green buttons with a black cross to zoom in, on the green button with a dash to zoom out, or on the green arrows for adjacent maps.


METAR-TAF: